Time;durP1;ratioP1;P1;durP2;ratioP2;P2;SDS_P1;SDS_P2;PMS_P1;PMS_P2;Temp;Humidity;BMP_temperature;BMP_pressure;BME280_temperature;BME280_humidity;BME280_pressure;Samples;Min_cycle;Max_cycle;Signal;HPM_P1;HPM_P2
2022/03/07 06:53:41;;;;;;;86.88;42.60;;;;;;;;;;4994457;23;20040;-87
2022/03/07 06:56:07;;;;;;;75.63;40.15;;;;;;;;;;4927343;29;20406;-87
2022/03/07 06:58:34;;;;;;;80.18;42.42;;;;;;;;;;4934123;29;20671;-86
2022/03/07 07:01:01;;;;;;;81.93;42.45;;;;;;;;;;4898919;29;20055;-87
2022/03/07 07:03:28;;;;;;;78.38;41.55;;;;;;;;;;4930623;29;20048;-87
2022/03/07 07:05:55;;;;;;;80.20;42.67;;;;;;;;;;4917743;29;20147;-87
2022/03/07 07:08:21;;;;;;;84.88;43.17;;;;;;;;;;4937167;29;20051;-87
2022/03/07 07:10:48;;;;;;;76.82;41.05;;;;;;;;;;4940581;29;20051;-87
2022/03/07 07:13:15;;;;;;;75.53;40.40;;;;;;;;;;4937571;29;20568;-88
2022/03/07 07:15:42;;;;;;;83.05;41.25;;;;;;;;;;4937897;29;20111;-87
2022/03/07 07:18:09;;;;;;;82.20;41.75;;;;;;;;;;4920941;29;20056;-87
2022/03/07 07:20:36;;;;;;;85.32;41.72;;;;;;;;;;4937523;29;20074;-86
2022/03/07 07:23:03;;;;;;;81.95;44.03;;;;;;;;;;4921081;29;20067;-88
2022/03/07 07:25:29;;;;;;;83.65;43.60;;;;;;;;;;4936659;29;20103;-87
2022/03/07 07:27:56;;;;;;;86.25;42.60;;;;;;;;;;4920785;29;20048;-87
2022/03/07 07:30:22;;;;;;;87.20;41.95;;;;;;;;;;4937188;29;20134;-87
2022/03/07 07:32:49;;;;;;;85.75;43.22;;;;;;;;;;4937672;29;20055;-86
2022/03/07 07:35:16;;;;;;;78.13;43.17;;;;;;;;;;4936936;29;20051;-86
2022/03/07 07:37:43;;;;;;;77.75;41.15;;;;;;;;;;4920294;29;20083;-86
2022/03/07 07:40:10;;;;;;;82.07;43.17;;;;;;;;;;4936774;29;20091;-86
2022/03/07 07:42:37;;;;;;;79.32;43.08;;;;;;;;;;4919770;29;20064;-84
2022/03/07 07:45:04;;;;;;;79.65;41.47;;;;;;;;;;4936120;29;20529;-85
2022/03/07 07:47:31;;;;;;;82.07;43.25;;;;;;;;;;4918514;29;20417;-83
2022/03/07 07:49:57;;;;;;;78.07;42.03;;;;;;;;;;4935663;29;20091;-85
2022/03/07 07:52:24;;;;;;;75.05;41.75;;;;;;;;;;4936099;29;20060;-86
2022/03/07 07:54:50;;;;;;;78.80;42.10;;;;;;;;;;4936638;29;20106;-86
2022/03/07 07:57:17;;;;;;;81.70;43.55;;;;;;;;;;4935431;29;20501;-84
2022/03/07 07:59:44;;;;;;;78.65;41.97;;;;;;;;;;4935128;29;20077;-84
2022/03/07 08:02:30;;;;;;;78.35;41.53;;;;;;;;;;4934894;29;20504;-84
2022/03/07 08:04:57;;;;;;;80.90;42.10;;;;;;;;;;4935643;29;20047;-84
2022/03/07 08:07:27;;;;;;;77.57;42.65;;;;;;;;;;4932135;29;20527;-84
2022/03/07 08:09:54;;;;;;;78.60;41.67;;;;;;;;;;4935257;29;20516;-85
2022/03/07 08:12:20;;;;;;;81.55;42.42;;;;;;;;;;4934698;29;20091;-84
2022/03/07 08:14:47;;;;;;;75.93;42.08;;;;;;;;;;4917567;29;20091;-85
2022/03/07 08:17:17;;;;;;;75.78;41.42;;;;;;;;;;4936452;29;20122;-82
2022/03/07 08:19:43;;;;;;;75.95;42.03;;;;;;;;;;4938574;29;20103;-84
2022/03/07 08:22:10;;;;;;;75.85;41.45;;;;;;;;;;4934424;29;20587;-85
2022/03/07 08:24:37;;;;;;;75.85;41.17;;;;;;;;;;4934652;29;20579;-86
2022/03/07 08:27:04;;;;;;;78.90;41.65;;;;;;;;;;4934493;29;20075;-86
2022/03/07 08:29:31;;;;;;;69.53;40.13;;;;;;;;;;4933983;29;20047;-85
2022/03/07 08:31:58;;;;;;;70.35;39.85;;;;;;;;;;4917639;29;20500;-85
2022/03/07 08:34:24;;;;;;;69.85;40.42;;;;;;;;;;4932560;29;20102;-85
2022/03/07 08:36:51;;;;;;;69.78;39.75;;;;;;;;;;4932838;29;20044;-85
2022/03/07 08:39:17;;;;;;;72.78;39.83;;;;;;;;;;4932095;29;20115;-85
2022/03/07 08:41:44;;;;;;;68.20;38.78;;;;;;;;;;4914444;29;20107;-84
2022/03/07 08:44:11;;;;;;;68.80;39.58;;;;;;;;;;4931898;29;20043;-84
2022/03/07 08:46:39;;;;;;;68.05;39.35;;;;;;;;;;4932359;29;20048;-84
2022/03/07 08:49:06;;;;;;;68.18;38.58;;;;;;;;;;4933888;29;20130;-83
2022/03/07 08:51:32;;;;;;;67.25;39.08;;;;;;;;;;4933679;29;20508;-84
2022/03/07 08:53:59;;;;;;;70.60;39.10;;;;;;;;;;4934303;29;20118;-84
2022/03/07 08:56:26;;;;;;;63.35;39.83;;;;;;;;;;4933508;29;20079;-86
2022/03/07 08:58:53;;;;;;;69.43;40.67;;;;;;;;;;4934541;29;20074;-86
2022/03/07 09:01:20;;;;;;;70.22;38.33;;;;;;;;;;4934615;29;20051;-85
2022/03/07 09:03:47;;;;;;;65.93;38.97;;;;;;;;;;4934308;29;20421;-85
2022/03/07 09:06:14;;;;;;;63.25;38.47;;;;;;;;;;4933474;29;20412;-85
2022/03/07 09:08:40;;;;;;;69.97;40.13;;;;;;;;;;4915990;29;20049;-86
2022/03/07 09:11:07;;;;;;;70.35;40.28;;;;;;;;;;4933591;29;20048;-85
2022/03/07 09:13:33;;;;;;;69.35;40.50;;;;;;;;;;4917291;29;20107;-86
2022/03/07 09:16:00;;;;;;;63.25;38.08;;;;;;;;;;4934496;29;20055;-86
2022/03/07 09:18:27;;;;;;;71.85;40.70;;;;;;;;;;4933228;29;20047;-84
2022/03/07 09:20:54;;;;;;;68.47;39.47;;;;;;;;;;4916586;29;20453;-85
2022/03/07 09:23:21;;;;;;;59.75;37.92;;;;;;;;;;4916334;29;20178;-86
2022/03/07 09:25:48;;;;;;;62.00;38.45;;;;;;;;;;4933384;29;20115;-86
2022/03/07 09:28:15;;;;;;;64.35;39.22;;;;;;;;;;4916990;29;20052;-86
2022/03/07 09:30:41;;;;;;;66.53;39.75;;;;;;;;;;4932620;29;20052;-86
2022/03/07 09:33:08;;;;;;;56.92;35.90;;;;;;;;;;4933023;29;20051;-85
2022/03/07 09:35:34;;;;;;;60.72;37.15;;;;;;;;;;4933209;29;20445;-85
2022/03/07 09:38:01;;;;;;;54.47;33.35;;;;;;;;;;4933714;29;20083;-85
2022/03/07 09:40:28;;;;;;;60.47;35.42;;;;;;;;;;4933451;29;20579;-86
2022/03/07 09:42:54;;;;;;;55.60;36.10;;;;;;;;;;4933052;29;20127;-85
2022/03/07 09:45:21;;;;;;;56.42;35.28;;;;;;;;;;4915833;29;20098;-85
2022/03/07 09:47:49;;;;;;;53.05;34.75;;;;;;;;;;4933531;29;20507;-84
2022/03/07 09:50:17;;;;;;;57.47;35.45;;;;;;;;;;4932839;29;20484;-84
2022/03/07 09:52:45;;;;;;;54.95;34.65;;;;;;;;;;4932924;29;20043;-85
2022/03/07 09:55:16;;;;;;;58.35;35.42;;;;;;;;;;4933157;29;20074;-84
2022/03/07 09:57:46;;;;;;;51.47;33.00;;;;;;;;;;4933265;29;20530;-85
2022/03/07 10:00:14;;;;;;;51.13;34.38;;;;;;;;;;4915771;29;20054;-84
2022/03/07 10:02:58;;;;;;;54.42;35.33;;;;;;;;;;4933097;29;20050;-85
2022/03/07 10:05:27;;;;;;;48.28;32.45;;;;;;;;;;4932411;29;20514;-84
2022/03/07 10:07:54;;;;;;;51.65;34.70;;;;;;;;;;4933231;29;20043;-85
2022/03/07 10:10:21;;;;;;;53.08;31.58;;;;;;;;;;4932833;29;20576;-85
2022/03/07 10:12:50;;;;;;;52.00;33.40;;;;;;;;;;4932734;29;20086;-84
2022/03/07 10:15:20;;;;;;;52.90;34.53;;;;;;;;;;4932357;29;20047;-85
2022/03/07 10:17:52;;;;;;;53.67;33.58;;;;;;;;;;4915872;29;20504;-84
2022/03/07 10:20:21;;;;;;;51.65;31.77;;;;;;;;;;4931950;29;20044;-85
2022/03/07 10:22:53;;;;;;;49.88;33.92;;;;;;;;;;4932656;29;20060;-85
2022/03/07 10:25:26;;;;;;;51.70;33.50;;;;;;;;;;4928916;29;20048;-85
2022/03/07 10:27:54;;;;;;;51.40;33.65;;;;;;;;;;4931995;29;20103;-84
2022/03/07 10:30:30;;;;;;;55.80;34.35;;;;;;;;;;4931971;29;20048;-85
2022/03/07 10:33:00;;;;;;;55.00;34.60;;;;;;;;;;4932271;29;20412;-84
2022/03/07 10:35:33;;;;;;;51.22;33.97;;;;;;;;;;4932251;29;20059;-84
2022/03/07 10:38:09;;;;;;;52.38;33.75;;;;;;;;;;4915412;29;20601;-84
2022/03/07 10:40:39;;;;;;;52.40;33.95;;;;;;;;;;4931981;29;20067;-84
2022/03/07 10:43:06;;;;;;;54.80;36.25;;;;;;;;;;4930966;29;20060;-84
2022/03/07 10:45:55;;;;;;;50.67;33.83;;;;;;;;;;4932659;29;20496;-85
2022/03/07 10:48:25;;;;;;;49.38;33.20;;;;;;;;;;4915048;29;21740;-85
2022/03/07 10:50:57;;;;;;;46.47;31.75;;;;;;;;;;4932048;29;20135;-85
2022/03/07 10:53:25;;;;;;;55.20;33.17;;;;;;;;;;4931139;29;20064;-83
2022/03/07 10:55:54;;;;;;;52.92;35.25;;;;;;;;;;4932321;29;20047;-81
2022/03/07 10:58:22;;;;;;;52.58;34.65;;;;;;;;;;4929170;29;20159;-81
2022/03/07 11:00:52;;;;;;;51.70;34.47;;;;;;;;;;4932738;29;20117;-82
2022/03/07 11:03:26;;;;;;;51.65;35.30;;;;;;;;;;4931336;29;20516;-82
2022/03/07 11:05:53;;;;;;;55.80;35.33;;;;;;;;;;4932182;29;20126;-82
2022/03/07 11:08:21;;;;;;;56.42;35.90;;;;;;;;;;4931313;29;20047;-81
2022/03/07 11:10:51;;;;;;;54.60;35.53;;;;;;;;;;4931926;29;20040;-85
2022/03/07 11:13:26;;;;;;;55.55;36.13;;;;;;;;;;4928647;29;20141;-84
2022/03/07 11:15:58;;;;;;;56.70;36.22;;;;;;;;;;4916198;29;20115;-84
2022/03/07 11:18:28;;;;;;;53.83;36.90;;;;;;;;;;4932252;29;20123;-85
2022/03/07 11:20:56;;;;;;;61.95;37.63;;;;;;;;;;4915476;29;20051;-84
2022/03/07 11:23:23;;;;;;;53.88;36.90;;;;;;;;;;4931846;29;20039;-85
2022/03/07 11:25:51;;;;;;;57.17;37.45;;;;;;;;;;4917261;29;20098;-84
2022/03/07 11:28:21;;;;;;;51.97;35.42;;;;;;;;;;4911886;29;20056;-85
2022/03/07 11:30:48;;;;;;;56.03;36.83;;;;;;;;;;4932666;29;20572;-86
2022/03/07 11:33:16;;;;;;;55.78;36.78;;;;;;;;;;4930944;29;20050;-84
2022/03/07 11:35:48;;;;;;;54.60;36.55;;;;;;;;;;4932171;29;20568;-85
2022/03/07 11:38:19;;;;;;;49.13;32.92;;;;;;;;;;4930424;29;20512;-84
2022/03/07 11:41:01;;;;;;;54.78;34.10;;;;;;;;;;4931568;29;20130;-87
2022/03/07 11:43:31;;;;;;;52.65;35.10;;;;;;;;;;4925861;29;20054;-87
2022/03/07 11:46:01;;;;;;;52.20;34.80;;;;;;;;;;4932060;29;20058;-89
2022/03/07 11:48:41;;;;;;;53.97;35.72;;;;;;;;;;4933988;29;20143;-90
2022/03/07 11:51:19;;;;;;;53.95;35.53;;;;;;;;;;4931596;29;20051;-87
2022/03/07 11:53:47;;;;;;;58.15;36.30;;;;;;;;;;4927868;29;20051;-89
2022/03/07 11:56:27;;;;;;;50.35;33.38;;;;;;;;;;4928194;29;20476;-88
2022/03/07 11:58:57;;;;;;;52.65;35.75;;;;;;;;;;4936037;29;20075;-90
2022/03/07 12:01:28;;;;;;;49.13;32.97;;;;;;;;;;4905637;29;20441;-87
2022/03/07 12:04:15;;;;;;;52.30;34.20;;;;;;;;;;4914421;29;20062;-85
2022/03/07 12:06:47;;;;;;;57.13;35.30;;;;;;;;;;4933854;29;20567;-85
2022/03/07 12:09:27;;;;;;;47.40;31.73;;;;;;;;;;4930748;29;20047;-86
2022/03/07 12:11:58;;;;;;;52.28;33.88;;;;;;;;;;4928255;29;20055;-87
2022/03/07 12:14:35;;;;;;;49.25;32.55;;;;;;;;;;4930969;29;20051;-89
2022/03/07 12:17:11;;;;;;;53.00;34.75;;;;;;;;;;4934880;29;20079;-85
2022/03/07 12:19:39;;;;;;;52.40;35.25;;;;;;;;;;4930497;29;20054;-83
2022/03/07 12:22:16;;;;;;;51.20;33.45;;;;;;;;;;4917020;29;20051;-85
2022/03/07 12:24:44;;;;;;;45.95;31.73;;;;;;;;;;4930548;29;20098;-84
2022/03/07 12:27:10;;;;;;;51.03;33.87;;;;;;;;;;4909837;29;20055;-83
2022/03/07 12:29:43;;;;;;;45.65;32.42;;;;;;;;;;4929457;29;20103;-86
2022/03/07 12:32:11;;;;;;;49.20;32.10;;;;;;;;;;4929629;29;20460;-85
2022/03/07 12:34:40;;;;;;;46.75;32.40;;;;;;;;;;4929768;29;20530;-85
2022/03/07 12:37:16;;;;;;;;;;;;;;;;;;4930670;29;20204;-86
2022/03/07 12:39:45;;;;;;;48.70;30.90;;;;;;;;;;4911322;29;20457;-87
2022/03/07 12:42:15;;;;;;;43.65;30.35;;;;;;;;;;4934801;29;20051;-88
2022/03/07 12:44:42;;;;;;;41.05;27.58;;;;;;;;;;4932323;29;20055;-89
2022/03/07 12:47:09;;;;;;;38.05;26.38;;;;;;;;;;4915273;29;20052;-88
2022/03/07 12:49:36;;;;;;;40.15;26.67;;;;;;;;;;4913601;29;20063;-85
2022/03/07 12:52:06;;;;;;;41.38;27.85;;;;;;;;;;4938842;29;20052;-85
2022/03/07 12:54:35;;;;;;;43.78;29.52;;;;;;;;;;4933463;29;20102;-86
2022/03/07 12:57:03;;;;;;;37.08;26.38;;;;;;;;;;4926623;29;20504;-85
2022/03/07 12:59:33;;;;;;;40.78;27.35;;;;;;;;;;4929700;29;20115;-83
2022/03/07 13:02:03;;;;;;;38.03;26.98;;;;;;;;;;4923746;29;20508;-84
2022/03/07 13:04:31;;;;;;;37.08;25.02;;;;;;;;;;4925146;29;20057;-83
2022/03/07 13:07:11;;;;;;;35.22;25.10;;;;;;;;;;4929219;29;20106;-84
2022/03/07 13:09:38;;;;;;;35.20;24.60;;;;;;;;;;4929435;29;20048;-84
2022/03/07 13:12:08;;;;;;;34.45;25.25;;;;;;;;;;4929450;29;20102;-84
2022/03/07 13:14:36;;;;;;;38.20;25.75;;;;;;;;;;4933108;29;20044;-85
2022/03/07 13:17:13;;;;;;;35.15;24.50;;;;;;;;;;4933622;29;20047;-85
2022/03/07 13:19:44;;;;;;;35.72;25.40;;;;;;;;;;4931060;29;20044;-84
2022/03/07 13:22:11;;;;;;;29.60;22.65;;;;;;;;;;4928201;29;20418;-84
2022/03/07 13:24:38;;;;;;;25.63;19.27;;;;;;;;;;4932852;29;20114;-84
2022/03/07 13:27:12;;;;;;;26.92;20.65;;;;;;;;;;4939875;29;20504;-85
2022/03/07 13:29:42;;;;;;;28.35;20.50;;;;;;;;;;4924272;29;20102;-84
2022/03/07 13:32:12;;;;;;;30.08;21.90;;;;;;;;;;4924263;29;20405;-86
2022/03/07 13:34:44;;;;;;;29.02;21.30;;;;;;;;;;4933512;29;20126;-85
2022/03/07 13:37:13;;;;;;;29.67;22.00;;;;;;;;;;4930855;29;20048;-84
2022/03/07 13:39:40;;;;;;;29.05;21.83;;;;;;;;;;4910865;29;20106;-85
2022/03/07 13:42:13;;;;;;;29.02;21.52;;;;;;;;;;4928855;29;20047;-85
2022/03/07 13:44:52;;;;;;;31.70;22.23;;;;;;;;;;4932352;29;20552;-83
2022/03/07 13:47:22;;;;;;;26.30;20.85;;;;;;;;;;4930961;29;20047;-86
2022/03/07 13:49:52;;;;;;;29.92;20.77;;;;;;;;;;4931652;29;20052;-85
2022/03/07 13:52:33;;;;;;;26.88;20.00;;;;;;;;;;4928417;29;20058;-85
2022/03/07 13:55:03;;;;;;;25.80;19.97;;;;;;;;;;4932206;29;20114;-85
2022/03/07 13:57:34;;;;;;;25.55;19.58;;;;;;;;;;4930511;29;20280;-85
2022/03/07 14:00:08;;;;;;;29.52;20.38;;;;;;;;;;4927563;29;20044;-86
2022/03/07 14:02:37;;;;;;;26.55;19.55;;;;;;;;;;4923507;29;20528;-86
2022/03/07 14:05:04;;;;;;;25.77;19.08;;;;;;;;;;4933195;29;20048;-85
2022/03/07 14:07:31;;;;;;;25.70;19.40;;;;;;;;;;4932476;29;20143;-86
2022/03/07 14:10:12;;;;;;;27.30;20.98;;;;;;;;;;4931616;29;20051;-86
2022/03/07 14:12:41;;;;;;;24.88;19.25;;;;;;;;;;4929935;29;20043;-88
2022/03/07 14:15:33;;;;;;;26.42;20.08;;;;;;;;;;4915069;29;20059;-89
2022/03/07 14:18:06;;;;;;;28.52;20.35;;;;;;;;;;4915889;29;20134;-85
2022/03/07 14:20:35;;;;;;;26.33;19.83;;;;;;;;;;4928711;29;20067;-85
2022/03/07 14:23:05;;;;;;;29.30;20.00;;;;;;;;;;4932327;29;20050;-85
2022/03/07 14:25:32;;;;;;;26.88;20.55;;;;;;;;;;4933256;29;20118;-85
2022/03/07 14:28:00;;;;;;;25.50;20.35;;;;;;;;;;4933158;29;20048;-85
2022/03/07 14:30:28;;;;;;;28.73;20.65;;;;;;;;;;4932009;29;20504;-84
2022/03/07 14:32:55;;;;;;;24.63;18.77;;;;;;;;;;4915402;29;20533;-85
2022/03/07 14:35:22;;;;;;;25.67;19.10;;;;;;;;;;4932470;29;20043;-86
2022/03/07 14:37:49;;;;;;;26.15;19.20;;;;;;;;;;4932446;29;20052;-84
2022/03/07 14:40:17;;;;;;;30.42;20.15;;;;;;;;;;4932854;29;20051;-84
2022/03/07 14:42:47;;;;;;;23.60;18.58;;;;;;;;;;4932123;29;20055;-84
2022/03/07 14:45:15;;;;;;;23.50;18.27;;;;;;;;;;4931557;29;20186;-84
2022/03/07 14:47:44;;;;;;;24.00;17.17;;;;;;;;;;4932903;29;20099;-86
2022/03/07 14:50:13;;;;;;;20.30;15.70;;;;;;;;;;4912999;29;20087;-86
2022/03/07 14:52:40;;;;;;;22.98;16.50;;;;;;;;;;4932857;29;20067;-86
2022/03/07 14:55:12;;;;;;;19.30;14.93;;;;;;;;;;4916932;29;20535;-84
2022/03/07 14:57:48;;;;;;;18.73;14.68;;;;;;;;;;4932359;29;20537;-85
2022/03/07 15:00:20;;;;;;;21.80;15.80;;;;;;;;;;4932381;29;20047;-84
2022/03/07 15:02:47;;;;;;;20.15;15.30;;;;;;;;;;4932013;29;20055;-86
2022/03/07 15:05:14;;;;;;;21.45;16.13;;;;;;;;;;4932348;29;20422;-84
2022/03/07 15:07:41;;;;;;;25.70;18.08;;;;;;;;;;4932390;29;20071;-85
2022/03/07 15:10:08;;;;;;;24.65;18.00;;;;;;;;;;4922927;29;20099;-84
2022/03/07 15:12:35;;;;;;;28.00;19.50;;;;;;;;;;4928284;29;20119;-84
2022/03/07 15:15:03;;;;;;;23.48;19.08;;;;;;;;;;4907481;29;20040;-82
2022/03/07 15:17:30;;;;;;;21.07;18.13;;;;;;;;;;4930037;29;20497;-83
2022/03/07 15:19:58;;;;;;;27.13;20.33;;;;;;;;;;4932107;29;20295;-85
2022/03/07 15:22:25;;;;;;;26.23;18.98;;;;;;;;;;4930508;29;20521;-85
2022/03/07 15:24:52;;;;;;;27.08;20.27;;;;;;;;;;4926463;29;20051;-85
2022/03/07 15:27:19;;;;;;;29.63;21.60;;;;;;;;;;4931626;29;20459;-83
2022/03/07 15:29:53;;;;;;;26.27;19.77;;;;;;;;;;4936419;29;20056;-85
2022/03/07 15:32:20;;;;;;;23.55;18.38;;;;;;;;;;4931968;29;20051;-84
2022/03/07 15:34:49;;;;;;;23.52;17.20;;;;;;;;;;4935886;29;20052;-84
2022/03/07 15:37:17;;;;;;;23.88;17.92;;;;;;;;;;4932262;29;20103;-84
2022/03/07 15:39:44;;;;;;;21.02;16.35;;;;;;;;;;4936266;29;20056;-83
2022/03/07 15:42:13;;;;;;;21.23;16.60;;;;;;;;;;4917943;29;20047;-87
2022/03/07 15:44:41;;;;;;;21.50;16.58;;;;;;;;;;4934864;29;20048;-85
2022/03/07 15:47:08;;;;;;;22.40;17.75;;;;;;;;;;4921701;29;20062;-84
2022/03/07 15:49:35;;;;;;;22.50;16.92;;;;;;;;;;4918342;29;20635;-84
2022/03/07 15:52:02;;;;;;;24.48;17.35;;;;;;;;;;4917368;29;20103;-84
2022/03/07 15:54:29;;;;;;;25.90;18.00;;;;;;;;;;4925887;29;20052;-88
2022/03/07 15:56:56;;;;;;;24.08;16.88;;;;;;;;;;4911112;29;20067;-87
2022/03/07 15:59:24;;;;;;;23.75;17.02;;;;;;;;;;4911294;29;20079;-87
2022/03/07 16:01:53;;;;;;;24.17;17.75;;;;;;;;;;4928440;29;20079;-87
2022/03/07 16:04:20;;;;;;;22.00;17.00;;;;;;;;;;4930252;29;20386;-85
2022/03/07 16:06:50;;;;;;;25.20;18.10;;;;;;;;;;4927764;29;20115;-85
2022/03/07 16:09:18;;;;;;;24.15;18.10;;;;;;;;;;4927937;29;20055;-83
2022/03/07 16:11:45;;;;;;;30.05;19.65;;;;;;;;;;4927403;29;20071;-84
2022/03/07 16:14:13;;;;;;;55.60;31.55;;;;;;;;;;4928459;29;20114;-84
2022/03/07 16:16:40;;;;;;;38.47;25.40;;;;;;;;;;4903859;29;20060;-84
2022/03/07 16:19:09;;;;;;;26.77;19.63;;;;;;;;;;4930467;29;20053;-84
2022/03/07 16:21:36;;;;;;;31.90;22.30;;;;;;;;;;4927033;29;20059;-85
2022/03/07 16:24:03;;;;;;;30.75;21.45;;;;;;;;;;4923632;29;20811;-83
2022/03/07 16:26:30;;;;;;;34.22;22.73;;;;;;;;;;4917581;29;20044;-84
2022/03/07 16:28:57;;;;;;;33.97;23.25;;;;;;;;;;4916969;29;20079;-83
2022/03/07 16:31:24;;;;;;;34.97;23.17;;;;;;;;;;4905022;29;20051;-85
2022/03/07 16:33:51;;;;;;;36.80;24.33;;;;;;;;;;4927909;29;20716;-84
2022/03/07 16:36:17;;;;;;;58.53;38.00;;;;;;;;;;4929746;29;20103;-85
2022/03/07 16:38:44;;;;;;;41.20;27.08;;;;;;;;;;4912663;29;20575;-84
2022/03/07 16:41:11;;;;;;;36.97;25.35;;;;;;;;;;4928092;29;20576;-84
2022/03/07 16:43:37;;;;;;;38.13;26.80;;;;;;;;;;4927811;29;20056;-83
2022/03/07 16:46:04;;;;;;;57.08;41.25;;;;;;;;;;4929424;29;20052;-83
2022/03/07 16:48:31;;;;;;;65.13;42.75;;;;;;;;;;4936293;29;20047;-84
2022/03/07 16:50:58;;;;;;;89.22;54.28;;;;;;;;;;4928985;29;20091;-85
2022/03/07 16:53:25;;;;;;;35.73;28.10;;;;;;;;;;4930325;29;20057;-86
2022/03/07 16:55:52;;;;;;;38.83;28.25;;;;;;;;;;4923817;29;20520;-84
2022/03/07 16:58:19;;;;;;;37.17;26.70;;;;;;;;;;4924802;29;20048;-85
2022/03/07 17:00:45;;;;;;;39.03;29.83;;;;;;;;;;4913759;29;20091;-85
2022/03/07 17:03:12;;;;;;;43.22;27.13;;;;;;;;;;4915244;29;20052;-86
2022/03/07 17:05:39;;;;;;;36.90;24.83;;;;;;;;;;4930410;29;20059;-85
2022/03/07 17:08:06;;;;;;;40.20;26.00;;;;;;;;;;4930986;29;20087;-86
2022/03/07 17:10:33;;;;;;;35.20;25.73;;;;;;;;;;4928642;29;20440;-85
2022/03/07 17:13:00;;;;;;;40.13;26.77;;;;;;;;;;4914366;29;20118;-84
2022/03/07 17:15:27;;;;;;;36.63;25.25;;;;;;;;;;4929632;29;20048;-85
2022/03/07 17:17:54;;;;;;;34.90;24.52;;;;;;;;;;4930816;29;20047;-86
2022/03/07 17:20:20;;;;;;;36.25;26.05;;;;;;;;;;4932429;29;20058;-85
2022/03/07 17:22:47;;;;;;;37.80;23.63;;;;;;;;;;4934457;29;20098;-86
2022/03/07 17:25:14;;;;;;;37.67;24.20;;;;;;;;;;4931626;29;20052;-89
2022/03/07 17:27:41;;;;;;;35.50;24.17;;;;;;;;;;4929069;29;20150;-86
2022/03/07 17:30:10;;;;;;;36.45;24.13;;;;;;;;;;4916369;29;20123;-88
2022/03/07 17:32:39;;;;;;;36.30;23.10;;;;;;;;;;4931001;29;20450;-88
2022/03/07 17:35:07;;;;;;;31.02;21.55;;;;;;;;;;4931369;29;20047;-86
2022/03/07 17:37:34;;;;;;;29.90;21.98;;;;;;;;;;4931802;29;20056;-87
2022/03/07 17:40:00;;;;;;;36.15;23.42;;;;;;;;;;4930654;29;20056;-86
2022/03/07 17:42:27;;;;;;;33.50;24.45;;;;;;;;;;4914704;29;20051;-85
2022/03/07 17:44:54;;;;;;;44.63;29.55;;;;;;;;;;4933352;29;20062;-86
2022/03/07 17:47:21;;;;;;;32.53;24.17;;;;;;;;;;4918120;29;20401;-85
2022/03/07 17:49:47;;;;;;;31.05;22.23;;;;;;;;;;4911786;29;20079;-86
2022/03/07 17:52:14;;;;;;;32.28;25.13;;;;;;;;;;4923946;29;20094;-85
2022/03/07 17:54:41;;;;;;;32.70;22.88;;;;;;;;;;4911578;29;20099;-84
2022/03/07 17:57:08;;;;;;;31.48;22.90;;;;;;;;;;4935650;29;20051;-87
2022/03/07 17:59:35;;;;;;;31.10;22.85;;;;;;;;;;4927842;29;20505;-86
2022/03/07 18:02:02;;;;;;;34.75;24.42;;;;;;;;;;4928955;29;20058;-88
2022/03/07 18:04:29;;;;;;;48.78;30.95;;;;;;;;;;4929945;29;20475;-86
2022/03/07 18:06:56;;;;;;;100.97;47.60;;;;;;;;;;4933940;29;20079;-85
2022/03/07 18:09:22;;;;;;;81.60;44.00;;;;;;;;;;4928929;29;20055;-84
2022/03/07 18:11:49;;;;;;;53.42;33.72;;;;;;;;;;4924861;29;20123;-85
2022/03/07 18:14:16;;;;;;;30.77;23.73;;;;;;;;;;4908527;29;20120;-85
2022/03/07 18:16:42;;;;;;;36.33;23.58;;;;;;;;;;4907571;29;20051;-85
2022/03/07 18:19:09;;;;;;;34.95;24.42;;;;;;;;;;4927125;29;20106;-85
2022/03/07 18:21:37;;;;;;;33.28;22.75;;;;;;;;;;4930370;29;20587;-86
2022/03/07 18:24:04;;;;;;;34.38;23.65;;;;;;;;;;4929972;29;20078;-86
2022/03/07 18:26:31;;;;;;;34.65;24.67;;;;;;;;;;4911865;29;20116;-86
2022/03/07 18:28:58;;;;;;;39.03;24.65;;;;;;;;;;4925804;29;20134;-86
2022/03/07 18:31:25;;;;;;;33.67;22.80;;;;;;;;;;4919962;29;20111;-85
2022/03/07 18:33:52;;;;;;;36.67;24.08;;;;;;;;;;4925295;29;20508;-86
2022/03/07 18:36:18;;;;;;;35.15;24.38;;;;;;;;;;4934497;29;20123;-87
2022/03/07 18:38:45;;;;;;;32.65;23.52;;;;;;;;;;4933230;29;20099;-84
2022/03/07 18:41:12;;;;;;;33.10;23.52;;;;;;;;;;4933388;29;20044;-85
2022/03/07 18:43:40;;;;;;;34.72;22.65;;;;;;;;;;4927865;29;20106;-86
2022/03/07 18:46:07;;;;;;;43.37;29.73;;;;;;;;;;4933917;29;20082;-87
2022/03/07 18:48:34;;;;;;;37.95;28.58;;;;;;;;;;4935369;29;20847;-89
2022/03/07 18:51:02;;;;;;;37.35;25.10;;;;;;;;;;4930149;29;20138;-88
2022/03/07 18:53:30;;;;;;;33.88;23.98;;;;;;;;;;4925906;29;20123;-91
2022/03/07 18:55:58;;;;;;;35.42;24.88;;;;;;;;;;4928505;29;20036;-90
2022/03/07 18:58:26;;;;;;;36.90;24.83;;;;;;;;;;4916864;29;20044;-89
2022/03/07 19:00:53;;;;;;;32.65;23.05;;;;;;;;;;4933713;29;20044;-83
2022/03/07 19:03:21;;;;;;;34.30;23.83;;;;;;;;;;4928355;29;20062;-85
2022/03/07 19:05:48;;;;;;;37.83;26.13;;;;;;;;;;4931947;29;20047;-85
2022/03/07 19:08:15;;;;;;;37.38;25.00;;;;;;;;;;4934850;29;20067;-87
2022/03/07 19:10:42;;;;;;;36.17;24.15;;;;;;;;;;4928085;29;20111;-90
2022/03/07 19:13:08;;;;;;;36.22;24.35;;;;;;;;;;4930244;29;20593;-90
2022/03/07 19:15:35;;;;;;;36.00;24.30;;;;;;;;;;4918338;29;20056;-88
2022/03/07 19:18:02;;;;;;;34.25;24.08;;;;;;;;;;4929577;29;20051;-88
2022/03/07 19:20:29;;;;;;;36.13;24.80;;;;;;;;;;4932329;29;20056;-89
2022/03/07 19:22:55;;;;;;;35.45;24.88;;;;;;;;;;4934968;29;20106;-88
2022/03/07 19:25:22;;;;;;;36.17;25.38;;;;;;;;;;4919161;29;20067;-86
2022/03/07 19:27:49;;;;;;;33.75;25.05;;;;;;;;;;4932745;29;20157;-88
2022/03/07 19:30:16;;;;;;;35.80;23.92;;;;;;;;;;4931197;29;20516;-87
2022/03/07 19:32:43;;;;;;;37.60;24.85;;;;;;;;;;4931378;29;20043;-90
2022/03/07 19:35:10;;;;;;;38.63;25.48;;;;;;;;;;4932607;29;20501;-86
2022/03/07 19:37:37;;;;;;;35.40;25.08;;;;;;;;;;4929725;29;20516;-88
2022/03/07 19:40:05;;;;;;;37.30;25.38;;;;;;;;;;4933742;29;20147;-84
2022/03/07 19:42:32;;;;;;;39.03;26.40;;;;;;;;;;4933167;29;20527;-85
2022/03/07 19:44:58;;;;;;;43.60;28.33;;;;;;;;;;4930095;29;20115;-86
2022/03/07 19:47:25;;;;;;;39.10;27.08;;;;;;;;;;4930319;29;20122;-87
2022/03/07 19:49:52;;;;;;;38.92;27.23;;;;;;;;;;4931976;29;20305;-87
2022/03/07 19:52:19;;;;;;;39.38;27.52;;;;;;;;;;4933295;29;20127;-88
2022/03/07 19:54:45;;;;;;;41.95;27.42;;;;;;;;;;4933453;29;20059;-89
2022/03/07 19:57:12;;;;;;;38.38;26.58;;;;;;;;;;4929927;29;20040;-86
2022/03/07 19:59:39;;;;;;;39.03;26.08;;;;;;;;;;4928247;29;20054;-85
2022/03/07 20:02:07;;;;;;;39.28;25.83;;;;;;;;;;4913052;29;20048;-87
2022/03/07 20:04:34;;;;;;;38.38;25.05;;;;;;;;;;4932669;29;20796;-85
2022/03/07 20:07:07;;;;;;;38.20;25.00;;;;;;;;;;4933698;29;20712;-86
2022/03/07 20:09:33;;;;;;;;;;;;;;;;;;4935489;29;20433;-88
2022/03/07 20:12:00;;;;;;;40.42;26.80;;;;;;;;;;4930921;29;19969;-91
2022/03/07 20:14:28;;;;;;;39.65;26.38;;;;;;;;;;4934183;29;20055;-88
2022/03/07 20:17:01;;;;;;;40.93;26.83;;;;;;;;;;4931147;29;20051;-89
2022/03/07 20:19:28;;;;;;;43.67;29.08;;;;;;;;;;4932392;29;20044;-88
2022/03/07 20:21:57;;;;;;;42.65;28.90;;;;;;;;;;4935115;29;20051;-89
2022/03/07 20:24:24;;;;;;;40.53;27.38;;;;;;;;;;4922563;29;20047;-89
2022/03/07 20:26:51;;;;;;;45.35;27.75;;;;;;;;;;4927466;29;20055;-88
2022/03/07 20:29:18;;;;;;;107.82;61.83;;;;;;;;;;4932320;29;20107;-89
2022/03/07 20:31:44;;;;;;;154.43;84.03;;;;;;;;;;4930990;29;20573;-90
2022/03/07 20:34:11;;;;;;;49.25;33.05;;;;;;;;;;4917925;29;20075;-90
2022/03/07 20:36:41;;;;;;;66.13;39.72;;;;;;;;;;4936677;29;20089;-90
2022/03/07 20:39:08;;;;;;;66.03;40.80;;;;;;;;;;4929125;29;20078;-90
2022/03/07 20:41:34;;;;;;;44.28;29.50;;;;;;;;;;4933327;29;20582;-89
2022/03/07 20:44:03;;;;;;;58.88;38.13;;;;;;;;;;4934680;29;20103;-91
2022/03/07 20:46:30;;;;;;;55.25;33.95;;;;;;;;;;4917331;29;20051;-88
2022/03/07 20:48:56;;;;;;;46.40;31.70;;;;;;;;;;4916608;29;20085;-88
2022/03/07 20:51:24;;;;;;;45.92;29.30;;;;;;;;;;4932489;29;20044;-88
2022/03/07 20:53:51;;;;;;;51.15;30.52;;;;;;;;;;4933914;29;20059;-87
2022/03/07 20:56:17;;;;;;;55.03;34.63;;;;;;;;;;4933495;29;20051;-88
2022/03/07 20:58:44;;;;;;;57.55;38.33;;;;;;;;;;4932028;29;20048;-86
2022/03/07 21:01:11;;;;;;;62.85;40.55;;;;;;;;;;4933764;29;20048;-85
2022/03/07 21:03:38;;;;;;;50.50;33.22;;;;;;;;;;4931095;29;20107;-87
2022/03/07 21:06:06;;;;;;;48.85;32.42;;;;;;;;;;4935423;29;20055;-88
2022/03/07 21:08:33;;;;;;;50.72;31.95;;;;;;;;;;4934463;29;20048;-85
2022/03/07 21:11:00;;;;;;;51.42;33.55;;;;;;;;;;4914894;29;20580;-84
2022/03/07 21:13:27;;;;;;;49.53;31.83;;;;;;;;;;4935968;29;20044;-87
2022/03/07 21:15:55;;;;;;;68.50;39.88;;;;;;;;;;4914704;29;20106;-84
2022/03/07 21:18:23;;;;;;;53.45;30.75;;;;;;;;;;4925657;29;20102;-85